Time,TemperatureF,DewpointF,PressureIn,WindDirection,WindDirectionDegrees,WindSpeedMPH,WindSpeedGustMPH,Humidity,HourlyPrecipIn,Conditions,Clouds,dailyrainin,SoftwareType,DateUTC
2013-06-01 00:01:00,73.1,68.0,29.93,ENE,74,2.0,2.0,84,0.00,,---,0.00,VWS V14.01,2013-06-01 04:01:00,
2013-06-01 00:06:00,73.1,67.6,29.93,East,81,0.0,0.0,83,0.00,,---,0.00,VWS V14.01,2013-06-01 04:06:00,
2013-06-01 00:11:00,73.1,67.6,29.93,SSE,152,0.0,0.0,83,0.00,,---,0.00,VWS V14.01,2013-06-01 04:11:00,
2013-06-01 00:16:00,73.1,67.6,29.93,East,100,0.0,1.0,83,0.00,,---,0.00,VWS V14.01,2013-06-01 04:16:00,
2013-06-01 00:21:00,73.1,67.6,29.93,SE,140,0.0,4.0,83,0.00,,---,0.00,VWS V14.01,2013-06-01 04:21:00,
2013-06-01 00:26:00,73.0,67.5,29.94,East,100,0.0,0.0,83,0.00,,---,0.00,VWS V14.01,2013-06-01 04:26:00,
2013-06-01 00:31:00,73.0,67.5,29.93,ESE,110,0.0,2.0,83,0.00,,---,0.00,VWS V14.01,2013-06-01 04:31:00,
2013-06-01 00:36:00,73.0,67.5,29.94,ESE,114,0.0,3.0,83,0.00,,---,0.00,VWS V14.01,2013-06-01 04:36:00,
2013-06-01 00:41:00,72.9,67.4,29.94,East,94,0.0,0.0,83,0.00,,---,0.00,VWS V14.01,2013-06-01 04:41:00,
2013-06-01 00:46:00,72.8,67.3,29.94,ESE,119,0.0,0.0,83,0.00,,---,0.00,VWS V14.01,2013-06-01 04:46:00,
2013-06-01 00:51:00,72.8,67.3,29.94,ENE,57,0.0,0.0,83,0.00,,---,0.00,VWS V14.01,2013-06-01 04:51:00,
2013-06-01 00:56:00,72.8,67.3,29.93,NW,315,0.0,0.0,83,0.00,,---,0.00,VWS V14.01,2013-06-01 04:56:00,
2013-06-01 01:01:00,72.8,67.3,29.93,SSE,147,1.0,2.0,83,0.00,,---,0.00,VWS V14.01,2013-06-01 05:01:00,
2013-06-01 01:06:00,72.9,67.4,29.93,ESE,110,0.0,1.0,83,0.00,,---,0.00,VWS V14.01,2013-06-01 05:06:00,
2013-06-01 01:11:00,72.9,67.1,29.93,SSE,149,0.0,1.0,82,0.00,,---,0.00,VWS V14.01,2013-06-01 05:11:00,
2013-06-01 01:16:00,72.9,67.1,29.93,ESE,106,0.0,0.0,82,0.00,,---,0.00,VWS V14.01,2013-06-01 05:16:00,
2013-06-01 01:21:00,72.7,67.2,29.93,NNE,16,0.0,0.0,83,0.00,,---,0.00,VWS V14.01,2013-06-01 05:21:00,
2013-06-01 01:26:00,72.7,67.2,29.93,East,85,0.0,0.0,83,0.00,,---,0.00,VWS V14.01,2013-06-01 05:26:00,
2013-06-01 01:31:00,72.6,67.2,29.93,ESE,115,0.0,1.0,83,0.00,,---,0.00,VWS V14.01,2013-06-01 05:31:00,
2013-06-01 01:36:00,72.6,67.2,29.93,East,100,0.0,0.0,83,0.00,,---,0.00,VWS V14.01,2013-06-01 05:36:00,
2013-06-01 01:41:00,72.6,66.8,29.93,SSE,147,0.0,0.0,82,0.00,,---,0.00,VWS V14.01,2013-06-01 05:41:00,
2013-06-01 01:46:00,72.5,66.7,29.92,East,79,0.0,0.0,82,0.00,,---,0.00,VWS V14.01,2013-06-01 05:46:00,
2013-06-01 01:50:00,72.4,66.6,29.92,East,86,1.0,1.0,82,0.00,,---,0.00,VWS V14.01,2013-06-01 05:50:00,
2013-06-01 01:55:00,72.2,66.4,29.92,ESE,108,0.0,0.0,82,0.00,,---,0.00,VWS V14.01,2013-06-01 05:55:00,
2013-06-01 02:00:00,72.1,66.7,29.92,SE,132,1.0,1.0,83,0.00,,---,0.00,VWS V14.01,2013-06-01 06:00:00,
2013-06-01 02:05:00,72.0,66.6,29.91,East,98,0.0,0.0,83,0.00,,---,0.00,VWS V14.01,2013-06-01 06:05:00,
2013-06-01 02:10:00,71.8,66.4,29.92,SSE,159,0.0,0.0,83,0.00,,---,0.00,VWS V14.01,2013-06-01 06:10:00,
2013-06-01 02:15:00,71.6,66.2,29.92,ESE,121,0.0,0.0,83,0.00,,---,0.00,VWS V14.01,2013-06-01 06:15:00,
2013-06-01 02:20:00,71.3,66.2,29.92,East,100,0.0,1.0,84,0.00,,---,0.00,VWS V14.01,2013-06-01 06:20:00,
2013-06-01 02:25:00,71.2,66.1,29.93,East,100,0.0,0.0,84,0.00,,---,0.00,VWS V14.01,2013-06-01 06:25:00,
2013-06-01 02:30:00,71.1,66.0,29.93,ESE,113,0.0,0.0,84,0.00,,---,0.00,VWS V14.01,2013-06-01 06:30:00,
2013-06-01 02:35:00,71.0,65.9,29.93,ENE,69,0.0,0.0,84,0.00,,---,0.00,VWS V14.01,2013-06-01 06:35:00,
2013-06-01 02:40:00,70.9,65.8,29.93,East,83,0.0,0.0,84,0.00,,---,0.00,VWS V14.01,2013-06-01 06:40:00,
2013-06-01 02:45:00,70.8,66.1,29.93,ENE,78,0.0,0.0,85,0.00,,---,0.00,VWS V14.01,2013-06-01 06:45:00,
2013-06-01 02:50:00,70.7,66.0,29.92,East,87,0.0,0.0,85,0.00,,---,0.00,VWS V14.01,2013-06-01 06:50:00,
2013-06-01 02:55:00,70.5,65.8,29.92,East,90,0.0,0.0,85,0.00,,---,0.00,VWS V14.01,2013-06-01 06:55:00,
2013-06-01 03:00:00,70.4,65.7,29.91,East,83,0.0,0.0,85,0.00,,---,0.00,VWS V14.01,2013-06-01 07:00:00,
2013-06-01 03:05:00,70.3,65.6,29.91,East,94,0.0,0.0,85,0.00,,---,0.00,VWS V14.01,2013-06-01 07:05:00,
2013-06-01 03:10:00,70.3,65.6,29.91,ESE,110,0.0,0.0,85,0.00,,---,0.00,VWS V14.01,2013-06-01 07:10:00,
2013-06-01 03:15:00,70.2,65.5,29.91,East,98,0.0,0.0,85,0.00,,---,0.00,VWS V14.01,2013-06-01 07:15:00,
2013-06-01 03:20:00,70.2,65.5,29.91,ESE,121,0.0,0.0,85,0.00,,---,0.00,VWS V14.01,2013-06-01 07:20:00,
2013-06-01 03:25:00,70.3,65.6,29.90,East,82,0.0,0.0,85,0.00,,---,0.00,VWS V14.01,2013-06-01 07:25:00,
2013-06-01 03:30:00,70.3,65.2,29.90,East,91,0.0,0.0,84,0.00,,---,0.00,VWS V14.01,2013-06-01 07:30:00,
2013-06-01 03:35:00,70.4,65.3,29.89,East,79,0.0,0.0,84,0.00,,---,0.00,VWS V14.01,2013-06-01 07:35:00,
2013-06-01 03:40:00,70.5,65.4,29.89,East,95,0.0,0.0,84,0.00,,---,0.00,VWS V14.01,2013-06-01 07:40:00,
2013-06-01 03:45:00,70.4,65.3,29.89,ESE,115,4.0,4.0,84,0.00,,---,0.00,VWS V14.01,2013-06-01 07:45:00,
2013-06-01 03:50:00,70.5,65.1,29.89,East,98,0.0,0.0,83,0.00,,---,0.00,VWS V14.01,2013-06-01 07:50:00,
2013-06-01 03:55:00,70.7,65.3,29.88,East,95,0.0,0.0,83,0.00,,---,0.00,VWS V14.01,2013-06-01 07:55:00,
2013-06-01 04:00:00,70.8,65.4,29.88,WSW,246,2.0,2.0,83,0.00,,---,0.00,VWS V14.01,2013-06-01 08:00:00,
2013-06-01 04:05:00,70.9,65.1,29.88,NE,51,3.0,3.0,82,0.00,,---,0.00,VWS V14.01,2013-06-01 08:05:00,
2013-06-01 04:10:00,71.1,65.3,29.88,East,90,1.0,1.0,82,0.00,,---,0.00,VWS V14.01,2013-06-01 08:10:00,
2013-06-01 04:15:00,71.2,65.1,29.88,East,84,0.0,0.0,81,0.00,,---,0.00,VWS V14.01,2013-06-01 08:15:00,
2013-06-01 04:20:00,71.2,65.1,29.87,East,91,0.0,0.0,81,0.00,,---,0.00,VWS V14.01,2013-06-01 08:20:00,
2013-06-01 04:25:00,71.3,65.2,29.87,ENE,75,2.0,2.0,81,0.00,,---,0.00,VWS V14.01,2013-06-01 08:25:00,
2013-06-01 04:30:00,71.2,65.1,29.87,ENE,65,1.0,1.0,81,0.00,,---,0.00,VWS V14.01,2013-06-01 08:30:00,
2013-06-01 04:35:00,71.2,65.1,29.88,East,90,0.0,0.0,81,0.00,,---,0.00,VWS V14.01,2013-06-01 08:35:00,
2013-06-01 04:40:00,71.3,65.2,29.87,West,277,0.0,0.0,81,0.00,,---,0.00,VWS V14.01,2013-06-01 08:40:00,
2013-06-01 04:45:00,71.3,65.2,29.87,ESE,123,1.0,1.0,81,0.00,,---,0.00,VWS V14.01,2013-06-01 08:45:00,
2013-06-01 04:50:00,71.4,65.3,29.87,ENE,62,1.0,1.0,81,0.00,,---,0.00,VWS V14.01,2013-06-01 08:50:00,
2013-06-01 04:55:00,71.4,65.3,29.87,East,83,2.0,2.0,81,0.00,,---,0.00,VWS V14.01,2013-06-01 08:55:00,
2013-06-01 05:00:00,71.4,65.3,29.86,NNE,20,4.0,4.0,81,0.00,,---,0.00,VWS V14.01,2013-06-01 09:00:00,
2013-06-01 05:05:00,71.4,65.3,29.87,East,81,1.0,1.0,81,0.00,,---,0.00,VWS V14.01,2013-06-01 09:05:00,
2013-06-01 05:10:00,71.3,65.2,29.86,East,89,2.0,4.0,81,0.00,,---,0.00,VWS V14.01,2013-06-01 09:10:00,
2013-06-01 05:15:00,71.4,64.9,29.85,East,93,1.0,11.0,80,0.00,,---,0.00,VWS V14.01,2013-06-01 09:15:00,
2013-06-01 05:20:00,71.4,65.3,29.85,ENE,78,0.0,2.0,81,0.00,,---,0.00,VWS V14.01,2013-06-01 09:20:00,
2013-06-01 05:25:00,71.3,65.2,29.85,North,350,1.0,3.0,81,0.00,,---,0.00,VWS V14.01,2013-06-01 09:25:00,
2013-06-01 05:30:00,71.2,65.1,29.84,East,93,0.0,1.0,81,0.00,,---,0.00,VWS V14.01,2013-06-01 09:30:00,
2013-06-01 05:35:00,71.3,65.2,29.84,NNW,337,1.0,3.0,81,0.00,,---,0.00,VWS V14.01,2013-06-01 09:35:00,
2013-06-01 05:40:00,71.2,65.1,29.85,SW,222,2.0,3.0,81,0.00,,---,0.00,VWS V14.01,2013-06-01 09:40:00,
2013-06-01 05:45:00,71.2,65.1,29.86,North,349,0.0,0.0,81,0.00,,---,0.00,VWS V14.01,2013-06-01 09:45:00,
2013-06-01 05:50:00,71.1,65.0,29.86,ENE,72,0.0,2.0,81,0.00,,---,0.00,VWS V14.01,2013-06-01 09:50:00,
2013-06-01 05:55:00,71.2,65.1,29.86,WNW,295,0.0,4.0,81,0.00,,---,0.00,VWS V14.01,2013-06-01 09:55:00,
2013-06-01 06:00:00,71.3,65.2,29.86,SSW,207,0.0,1.0,81,0.00,,---,0.00,VWS V14.01,2013-06-01 10:00:00,
2013-06-01 06:05:00,71.4,65.3,29.87,North,6,0.0,3.0,81,0.00,,---,0.00,VWS V14.01,2013-06-01 10:05:00,
2013-06-01 06:10:00,71.5,65.0,29.90,NNW,338,6.0,18.0,80,0.00,,---,0.00,VWS V14.01,2013-06-01 10:10:00,
2013-06-01 06:15:00,69.7,61.8,29.90,West,262,10.0,11.0,76,0.00,,---,0.00,VWS V14.01,2013-06-01 10:15:00,
2013-06-01 06:20:00,68.3,61.2,29.91,WNW,292,2.0,10.0,78,0.00,,---,0.00,VWS V14.01,2013-06-01 10:20:00,
2013-06-01 06:25:00,66.5,61.2,29.92,West,277,8.0,12.0,83,0.00,,---,0.00,VWS V14.01,2013-06-01 10:25:00,
2013-06-01 06:30:00,64.8,60.5,29.92,West,277,2.0,8.0,86,0.04,,---,0.04,VWS V14.01,2013-06-01 10:30:00,
2013-06-01 06:35:00,63.8,60.5,29.93,WNW,295,4.0,6.0,89,0.07,,---,0.07,VWS V14.01,2013-06-01 10:35:00,
2013-06-01 06:40:00,63.3,60.6,29.93,SW,233,0.0,2.0,91,0.08,,---,0.08,VWS V14.01,2013-06-01 10:40:00,
2013-06-01 06:45:00,63.0,60.6,29.94,WNW,285,3.0,3.0,92,0.13,,---,0.13,VWS V14.01,2013-06-01 10:45:00,
2013-06-01 06:50:00,62.9,60.5,29.93,NW,320,1.0,3.0,92,0.14,,---,0.14,VWS V14.01,2013-06-01 10:50:00,
2013-06-01 06:55:00,62.8,60.8,29.94,WNW,290,1.0,1.0,93,0.14,,---,0.14,VWS V14.01,2013-06-01 10:55:00,
2013-06-01 07:00:00,62.8,60.8,29.94,WNW,295,0.0,1.0,93,0.14,,---,0.14,VWS V14.01,2013-06-01 11:00:00,
2013-06-01 07:05:00,62.8,60.8,29.94,NW,308,0.0,0.0,93,0.14,,---,0.14,VWS V14.01,2013-06-01 11:05:00,
2013-06-01 07:10:00,62.8,60.8,29.94,WNW,292,0.0,0.0,93,0.14,,---,0.14,VWS V14.01,2013-06-01 11:10:00,
2013-06-01 07:15:00,62.8,61.0,29.94,West,264,0.0,0.0,94,0.15,,---,0.15,VWS V14.01,2013-06-01 11:15:00,
2013-06-01 07:20:00,62.8,61.0,29.93,West,266,0.0,0.0,94,0.15,,---,0.15,VWS V14.01,2013-06-01 11:20:00,
2013-06-01 07:25:00,62.8,61.0,29.93,WNW,301,0.0,0.0,94,0.15,,---,0.15,VWS V14.01,2013-06-01 11:25:00,
2013-06-01 07:30:00,62.9,61.2,29.93,North,353,0.0,0.0,94,0.11,,---,0.15,VWS V14.01,2013-06-01 11:30:00,
2013-06-01 07:35:00,63.0,61.2,29.93,NNW,333,0.0,0.0,94,0.08,,---,0.15,VWS V14.01,2013-06-01 11:35:00,
2013-06-01 07:40:00,63.0,61.2,29.92,NNW,334,0.0,0.0,94,0.07,,---,0.15,VWS V14.01,2013-06-01 11:40:00,
2013-06-01 07:45:00,62.9,61.2,29.93,East,87,0.0,0.0,94,0.02,,---,0.15,VWS V14.01,2013-06-01 11:45:00,
2013-06-01 07:50:00,63.0,61.2,29.92,East,98,0.0,0.0,94,0.01,,---,0.15,VWS V14.01,2013-06-01 11:50:00,
2013-06-01 07:55:00,63.1,61.3,29.92,ESE,106,1.0,2.0,94,0.01,,---,0.15,VWS V14.01,2013-06-01 11:55:00,
2013-06-01 08:00:00,63.1,61.3,29.92,East,83,0.0,1.0,94,0.01,,---,0.15,VWS V14.01,2013-06-01 12:00:00,
2013-06-01 08:05:00,63.2,61.5,29.91,East,79,0.0,1.0,94,0.01,,---,0.15,VWS V14.01,2013-06-01 12:05:00,
2013-06-01 08:10:00,63.2,61.5,29.91,ESE,102,0.0,0.0,94,0.01,,---,0.15,VWS V14.01,2013-06-01 12:10:00,
2013-06-01 08:15:00,63.4,61.7,29.92,SE,140,0.0,0.0,94,0.00,,---,0.15,VWS V14.01,2013-06-01 12:15:00,
2013-06-01 08:19:00,63.6,61.8,29.91,SE,140,0.0,0.0,94,0.00,,---,0.15,VWS V14.01,2013-06-01 12:19:00,
2013-06-01 08:24:00,63.8,62.0,29.92,SE,140,0.0,0.0,94,0.00,,---,0.15,VWS V14.01,2013-06-01 12:24:00,
2013-06-01 08:29:00,64.0,62.2,29.92,SE,131,0.0,0.0,94,0.00,,---,0.15,VWS V14.01,2013-06-01 12:29:00,
2013-06-01 08:34:00,64.1,62.3,29.92,ESE,115,0.0,0.0,94,0.00,,---,0.15,VWS V14.01,2013-06-01 12:34:00,
2013-06-01 08:39:00,64.1,62.3,29.91,ESE,115,0.0,0.0,94,0.00,,---,0.15,VWS V14.01,2013-06-01 12:39:00,
2013-06-01 08:44:00,64.1,62.3,29.92,ESE,115,0.0,0.0,94,0.00,,---,0.15,VWS V14.01,2013-06-01 12:44:00,
2013-06-01 08:49:00,64.4,62.6,29.91,ESE,112,0.0,0.0,94,0.00,,---,0.15,VWS V14.01,2013-06-01 12:49:00,
2013-06-01 08:54:00,64.4,62.6,29.92,ESE,121,0.0,0.0,94,0.00,,---,0.15,VWS V14.01,2013-06-01 12:54:00,
2013-06-01 08:59:00,64.6,62.8,29.93,ESE,107,0.0,0.0,94,0.00,,---,0.15,VWS V14.01,2013-06-01 12:59:00,
2013-06-01 09:04:00,64.8,63.0,29.93,ESE,108,0.0,0.0,94,0.00,,---,0.15,VWS V14.01,2013-06-01 13:04:00,
2013-06-01 09:09:00,64.9,63.1,29.93,WSW,245,0.0,0.0,94,0.00,,---,0.15,VWS V14.01,2013-06-01 13:09:00,
2013-06-01 09:14:00,65.2,63.7,29.93,WSW,245,0.0,0.0,95,0.00,,---,0.15,VWS V14.01,2013-06-01 13:14:00,
2013-06-01 09:19:00,65.5,63.7,29.93,East,85,0.0,0.0,94,0.00,,---,0.15,VWS V14.01,2013-06-01 13:19:00,
2013-06-01 09:24:00,65.4,63.6,29.93,WSW,249,0.0,0.0,94,0.00,,---,0.15,VWS V14.01,2013-06-01 13:24:00,
2013-06-01 09:29:00,65.6,63.8,29.94,WSW,247,0.0,0.0,94,0.00,,---,0.15,VWS V14.01,2013-06-01 13:29:00,
2013-06-01 09:34:00,65.8,64.0,29.94,WSW,247,0.0,0.0,94,0.00,,---,0.15,VWS V14.01,2013-06-01 13:34:00,
2013-06-01 09:39:00,66.0,63.9,29.93,SSW,198,0.0,0.0,93,0.00,,---,0.15,VWS V14.01,2013-06-01 13:39:00,
2013-06-01 09:44:00,66.2,64.4,29.94,SW,235,0.0,0.0,94,0.00,,---,0.15,VWS V14.01,2013-06-01 13:44:00,
2013-06-01 09:49:00,66.4,64.3,29.94,SE,132,0.0,0.0,93,0.00,,---,0.15,VWS V14.01,2013-06-01 13:49:00,
2013-06-01 09:54:00,67.0,65.2,29.94,SW,233,0.0,0.0,94,0.00,,---,0.15,VWS V14.01,2013-06-01 13:54:00,
2013-06-01 09:59:00,67.6,65.8,29.94,WSW,242,0.0,0.0,94,0.00,,---,0.15,VWS V14.01,2013-06-01 13:59:00,
2013-06-01 10:04:00,68.5,66.4,29.95,South,177,0.0,0.0,93,0.00,,---,0.15,VWS V14.01,2013-06-01 14:04:00,
2013-06-01 10:09:00,68.8,66.1,29.95,SW,225,2.0,2.0,91,0.00,,---,0.15,VWS V14.01,2013-06-01 14:09:00,
2013-06-01 10:14:00,68.6,65.2,29.95,WNW,287,0.0,1.0,89,0.00,,---,0.15,VWS V14.01,2013-06-01 14:14:00,
2013-06-01 10:19:00,68.4,65.0,29.94,WSW,240,1.0,1.0,89,0.00,,---,0.15,VWS V14.01,2013-06-01 14:19:00,
2013-06-01 10:24:00,68.2,65.2,29.95,North,6,0.0,0.0,90,0.00,,---,0.15,VWS V14.01,2013-06-01 14:24:00,
2013-06-01 10:29:00,68.0,64.6,29.95,NNE,24,0.0,0.0,89,0.00,,---,0.15,VWS V14.01,2013-06-01 14:29:00,
2013-06-01 10:34:00,67.7,64.3,29.94,SSE,152,0.0,0.0,89,0.00,,---,0.15,VWS V14.01,2013-06-01 14:34:00,
2013-06-01 10:39:00,67.3,64.0,29.94,SW,233,0.0,0.0,89,0.00,,---,0.15,VWS V14.01,2013-06-01 14:39:00,
2013-06-01 10:44:00,67.1,63.8,29.94,ENE,58,0.0,0.0,89,0.00,,---,0.15,VWS V14.01,2013-06-01 14:44:00,
2013-06-01 10:49:00,66.7,63.7,29.95,West,281,0.0,1.0,90,0.00,,---,0.15,VWS V14.01,2013-06-01 14:49:00,
2013-06-01 10:54:00,66.5,63.5,29.95,North,1,0.0,0.0,90,0.00,,---,0.15,VWS V14.01,2013-06-01 14:54:00,
2013-06-01 10:59:00,66.3,63.6,29.95,NNW,327,0.0,0.0,91,0.00,,---,0.15,VWS V14.01,2013-06-01 14:59:00,
2013-06-01 11:04:00,66.3,63.6,29.95,SE,146,0.0,0.0,91,0.00,,---,0.15,VWS V14.01,2013-06-01 15:04:00,
2013-06-01 11:09:00,66.1,63.4,29.95,WNW,287,0.0,1.0,91,0.01,,---,0.16,VWS V14.01,2013-06-01 15:09:00,
2013-06-01 11:14:00,66.1,63.7,29.95,WNW,302,0.0,0.0,92,0.01,,---,0.16,VWS V14.01,2013-06-01 15:14:00,
2013-06-01 11:19:00,66.2,63.8,29.95,West,268,0.0,0.0,92,0.01,,---,0.16,VWS V14.01,2013-06-01 15:19:00,
2013-06-01 11:24:00,66.1,63.7,29.95,WSW,244,0.0,0.0,92,0.01,,---,0.16,VWS V14.01,2013-06-01 15:24:00,
2013-06-01 11:29:00,66.1,63.7,29.94,SW,232,0.0,0.0,92,0.01,,---,0.16,VWS V14.01,2013-06-01 15:29:00,
2013-06-01 11:34:00,66.0,63.6,29.95,NW,315,0.0,0.0,92,0.01,,---,0.16,VWS V14.01,2013-06-01 15:34:00,
2013-06-01 11:39:00,66.0,63.6,29.95,NNW,344,0.0,0.0,92,0.01,,---,0.16,VWS V14.01,2013-06-01 15:39:00,
2013-06-01 11:44:00,65.9,63.5,29.94,SSE,167,0.0,0.0,92,0.01,,---,0.16,VWS V14.01,2013-06-01 15:44:00,
2013-06-01 11:49:00,66.1,63.7,29.94,South,191,0.0,0.0,92,0.01,,---,0.16,VWS V14.01,2013-06-01 15:49:00,
2013-06-01 11:54:00,66.7,64.3,29.94,East,82,0.0,0.0,92,0.01,,---,0.16,VWS V14.01,2013-06-01 15:54:00,
2013-06-01 11:59:00,67.0,64.6,29.93,SE,137,0.0,0.0,92,0.01,,---,0.16,VWS V14.01,2013-06-01 15:59:00,
2013-06-01 12:04:00,67.5,64.8,29.93,East,85,0.0,0.0,91,0.01,,---,0.16,VWS V14.01,2013-06-01 16:04:00,
2013-06-01 12:09:00,67.7,64.3,29.93,ENE,74,0.0,1.0,89,0.00,,---,0.16,VWS V14.01,2013-06-01 16:09:00,
2013-06-01 12:14:00,68.1,64.7,29.93,WNW,282,0.0,0.0,89,0.00,,---,0.16,VWS V14.01,2013-06-01 16:14:00,
2013-06-01 12:19:00,68.1,64.4,29.93,East,98,0.0,0.0,88,0.00,,---,0.16,VWS V14.01,2013-06-01 16:19:00,
2013-06-01 12:24:00,68.0,64.0,29.93,SW,233,0.0,0.0,87,0.00,,---,0.16,VWS V14.01,2013-06-01 16:24:00,
2013-06-01 12:29:00,67.9,64.2,29.93,WNW,285,0.0,0.0,88,0.00,,---,0.16,VWS V14.01,2013-06-01 16:29:00,
2013-06-01 12:34:00,67.8,64.4,29.93,WSW,254,0.0,0.0,89,0.00,,---,0.16,VWS V14.01,2013-06-01 16:34:00,
2013-06-01 12:39:00,67.9,64.5,29.93,West,280,0.0,0.0,89,0.00,,---,0.16,VWS V14.01,2013-06-01 16:39:00,
2013-06-01 12:44:00,67.7,64.0,29.93,WNW,283,0.0,0.0,88,0.00,,---,0.16,VWS V14.01,2013-06-01 16:44:00,
2013-06-01 12:49:00,67.6,64.2,29.93,WNW,287,0.0,0.0,89,0.00,,---,0.16,VWS V14.01,2013-06-01 16:49:00,
2013-06-01 12:54:00,67.6,64.2,29.93,WNW,282,0.0,0.0,89,0.00,,---,0.16,VWS V14.01,2013-06-01 16:54:00,
2013-06-01 12:59:00,67.6,64.2,29.93,West,281,0.0,0.0,89,0.00,,---,0.16,VWS V14.01,2013-06-01 16:59:00,
2013-06-01 13:04:00,67.6,64.2,29.93,SW,232,0.0,0.0,89,0.00,,---,0.16,VWS V14.01,2013-06-01 17:04:00,
2013-06-01 13:09:00,67.6,64.2,29.93,East,95,0.0,0.0,89,0.00,,---,0.16,VWS V14.01,2013-06-01 17:09:00,
2013-06-01 13:14:00,67.5,64.2,29.93,SSW,204,0.0,0.0,89,0.00,,---,0.16,VWS V14.01,2013-06-01 17:14:00,
2013-06-01 13:19:00,67.6,64.2,29.93,SSE,147,0.0,0.0,89,0.00,,---,0.16,VWS V14.01,2013-06-01 17:19:00,
2013-06-01 13:24:00,67.6,64.2,29.93,NE,51,0.0,0.0,89,0.00,,---,0.16,VWS V14.01,2013-06-01 17:24:00,
2013-06-01 13:29:00,68.0,64.6,29.92,WNW,299,0.0,0.0,89,0.00,,---,0.16,VWS V14.01,2013-06-01 17:29:00,
2013-06-01 13:34:00,69.0,65.6,29.92,South,181,0.0,0.0,89,0.00,,---,0.16,VWS V14.01,2013-06-01 17:34:00,
2013-06-01 13:39:00,70.3,66.2,29.92,ENE,61,0.0,0.0,87,0.00,,---,0.16,VWS V14.01,2013-06-01 17:39:00,
2013-06-01 13:44:00,71.2,66.5,29.92,WNW,289,1.0,1.0,85,0.00,,---,0.16,VWS V14.01,2013-06-01 17:44:00,
2013-06-01 13:49:00,72.2,66.1,29.91,WSW,249,0.0,1.0,81,0.00,,---,0.16,VWS V14.01,2013-06-01 17:49:00,
2013-06-01 13:54:00,72.8,66.6,29.91,ENE,76,2.0,2.0,81,0.00,,---,0.16,VWS V14.01,2013-06-01 17:54:00,
2013-06-01 13:59:00,73.0,66.1,29.91,SW,236,3.0,3.0,79,0.00,,---,0.16,VWS V14.01,2013-06-01 17:59:00,
2013-06-01 14:04:00,73.3,66.4,29.91,SW,225,0.0,1.0,79,0.00,,---,0.16,VWS V14.01,2013-06-01 18:04:00,
2013-06-01 14:09:00,73.7,65.7,29.91,ESE,118,0.0,1.0,76,0.00,,---,0.16,VWS V14.01,2013-06-01 18:09:00,
2013-06-01 14:14:00,73.7,67.2,29.90,East,97,0.0,0.0,80,0.00,,---,0.16,VWS V14.01,2013-06-01 18:14:00,
2013-06-01 14:21:00,74.1,66.1,29.90,NE,51,0.0,0.0,76,0.00,,---,0.16,VWS V14.01,2013-06-01 18:21:00,
2013-06-01 14:26:00,74.0,66.7,29.90,SSE,164,0.0,1.0,78,0.00,,---,0.16,VWS V14.01,2013-06-01 18:26:00,
2013-06-01 14:33:00,74.5,66.1,29.90,ENE,74,0.0,4.0,75,0.00,,---,0.16,VWS V14.01,2013-06-01 18:33:00,
2013-06-01 14:38:00,74.4,66.7,29.90,SW,233,2.0,2.0,77,0.00,,---,0.16,VWS V14.01,2013-06-01 18:38:00,
2013-06-01 14:43:00,74.5,67.2,29.90,NW,312,2.0,2.0,78,0.00,,---,0.16,VWS V14.01,2013-06-01 18:43:00,
2013-06-01 14:48:00,75.2,67.1,29.89,South,188,0.0,0.0,76,0.00,,---,0.16,VWS V14.01,2013-06-01 18:48:00,
2013-06-01 14:54:00,75.6,67.1,29.89,West,277,2.0,2.0,75,0.00,,---,0.16,VWS V14.01,2013-06-01 18:54:00,
2013-06-01 14:59:00,75.6,68.3,29.89,SW,215,0.0,0.0,78,0.00,,---,0.16,VWS V14.01,2013-06-01 18:59:00,
2013-06-01 15:04:00,76.2,67.7,29.88,WSW,238,1.0,1.0,75,0.00,,---,0.16,VWS V14.01,2013-06-01 19:04:00,
2013-06-01 15:09:00,76.6,68.1,29.88,WNW,296,1.0,1.0,75,0.00,,---,0.16,VWS V14.01,2013-06-01 19:09:00,
2013-06-01 15:14:00,77.2,68.3,29.88,SSW,205,1.0,2.0,74,0.00,,---,0.16,VWS V14.01,2013-06-01 19:14:00,
2013-06-01 15:19:00,77.0,67.7,29.88,WNW,290,3.0,5.0,73,0.00,,---,0.16,VWS V14.01,2013-06-01 19:19:00,
2013-06-01 15:24:00,76.1,68.0,29.87,WSW,246,0.0,4.0,76,0.00,,---,0.16,VWS V14.01,2013-06-01 19:24:00,
2013-06-01 15:29:00,76.1,68.4,29.88,NW,323,1.0,2.0,77,0.00,,---,0.16,VWS V14.01,2013-06-01 19:29:00,
2013-06-01 15:34:00,75.9,68.2,29.88,ESE,102,0.0,0.0,77,0.00,,---,0.16,VWS V14.01,2013-06-01 19:34:00,
2013-06-01 15:39:00,75.5,68.2,29.88,West,261,1.0,4.0,78,0.00,,---,0.16,VWS V14.01,2013-06-01 19:39:00,
2013-06-01 15:44:00,74.7,67.8,29.88,SW,222,0.0,2.0,79,0.00,,---,0.16,VWS V14.01,2013-06-01 19:44:00,
2013-06-01 15:49:00,73.9,67.3,29.88,WNW,282,0.0,1.0,80,0.00,,---,0.16,VWS V14.01,2013-06-01 19:49:00,
2013-06-01 15:54:00,73.3,67.1,29.87,WNW,295,0.0,0.0,81,0.00,,---,0.16,VWS V14.01,2013-06-01 19:54:00,
2013-06-01 15:59:00,72.8,67.0,29.87,SW,219,0.0,0.0,82,0.00,,---,0.16,VWS V14.01,2013-06-01 19:59:00,
2013-06-01 16:04:00,72.5,67.1,29.87,WNW,295,3.0,3.0,83,0.00,,---,0.16,VWS V14.01,2013-06-01 20:04:00,
2013-06-01 16:08:00,72.5,67.1,29.87,WNW,297,0.0,3.0,83,0.00,,---,0.16,VWS V14.01,2013-06-01 20:08:00,
2013-06-01 16:13:00,72.4,66.9,29.87,WNW,290,0.0,1.0,83,0.00,,---,0.16,VWS V14.01,2013-06-01 20:13:00,
2013-06-01 16:18:00,72.2,66.8,29.87,NW,306,2.0,3.0,83,0.00,,---,0.16,VWS V14.01,2013-06-01 20:18:00,
2013-06-01 16:23:00,71.8,67.1,29.88,SSW,209,0.0,2.0,85,0.00,,---,0.16,VWS V14.01,2013-06-01 20:23:00,
2013-06-01 16:28:00,71.6,66.5,29.88,WSW,254,0.0,0.0,84,0.00,,---,0.16,VWS V14.01,2013-06-01 20:28:00,
2013-06-01 16:33:00,71.4,65.6,29.87,WSW,252,0.0,1.0,82,0.00,,---,0.16,VWS V14.01,2013-06-01 20:33:00,
2013-06-01 16:38:00,71.7,65.9,29.87,West,263,1.0,3.0,82,0.00,,---,0.16,VWS V14.01,2013-06-01 20:38:00,
2013-06-01 16:43:00,72.2,66.8,29.87,West,262,4.0,4.0,83,0.00,,---,0.16,VWS V14.01,2013-06-01 20:43:00,
2013-06-01 16:48:00,72.2,65.7,29.86,NW,315,2.0,4.0,80,0.00,,---,0.16,VWS V14.01,2013-06-01 20:48:00,
2013-06-01 16:53:00,71.9,65.0,29.85,WNW,283,1.0,3.0,79,0.00,,---,0.16,VWS V14.01,2013-06-01 20:53:00,
2013-06-01 16:58:00,71.9,66.1,29.84,SW,216,0.0,0.0,82,0.00,,---,0.16,VWS V14.01,2013-06-01 20:58:00,
2013-06-01 17:03:00,72.3,66.8,29.84,West,277,0.0,1.0,83,0.00,,---,0.16,VWS V14.01,2013-06-01 21:03:00,
2013-06-01 17:08:00,72.7,67.6,29.84,WNW,299,2.0,3.0,84,0.01,,---,0.17,VWS V14.01,2013-06-01 21:08:00,
2013-06-01 17:13:00,72.6,66.8,29.83,WNW,289,2.0,4.0,82,0.01,,---,0.17,VWS V14.01,2013-06-01 21:13:00,
2013-06-01 17:18:00,72.5,67.4,29.83,ESE,108,0.0,1.0,84,0.01,,---,0.17,VWS V14.01,2013-06-01 21:18:00,
2013-06-01 17:23:00,72.9,66.7,29.83,SW,214,0.0,2.0,81,0.01,,---,0.17,VWS V14.01,2013-06-01 21:23:00,
2013-06-01 17:28:00,73.1,66.9,29.83,West,259,0.0,0.0,81,0.01,,---,0.17,VWS V14.01,2013-06-01 21:28:00,
2013-06-01 17:33:00,73.3,67.1,29.83,East,84,0.0,0.0,81,0.01,,---,0.17,VWS V14.01,2013-06-01 21:33:00,
2013-06-01 17:38:00,73.0,67.2,29.83,NW,308,0.0,0.0,82,0.01,,---,0.17,VWS V14.01,2013-06-01 21:38:00,
2013-06-01 17:43:00,72.8,67.0,29.83,East,98,0.0,0.0,82,0.01,,---,0.17,VWS V14.01,2013-06-01 21:43:00,
2013-06-01 17:48:00,72.5,67.1,29.83,East,98,2.0,2.0,83,0.01,,---,0.17,VWS V14.01,2013-06-01 21:48:00,
2013-06-01 17:53:00,72.0,66.9,29.82,East,81,0.0,1.0,84,0.01,,---,0.17,VWS V14.01,2013-06-01 21:53:00,
2013-06-01 17:58:00,71.7,66.9,29.82,East,92,0.0,0.0,85,0.01,,---,0.17,VWS V14.01,2013-06-01 21:58:00,
2013-06-01 18:03:00,71.3,66.6,29.81,East,79,1.0,2.0,85,0.01,,---,0.17,VWS V14.01,2013-06-01 22:03:00,
2013-06-01 18:08:00,71.1,66.7,29.81,East,87,0.0,1.0,86,0.00,,---,0.17,VWS V14.01,2013-06-01 22:08:00,
2013-06-01 18:13:00,70.9,66.2,29.80,ESE,115,0.0,0.0,85,0.00,,---,0.17,VWS V14.01,2013-06-01 22:13:00,
2013-06-01 18:18:00,70.8,66.4,29.80,East,90,0.0,1.0,86,0.00,,---,0.17,VWS V14.01,2013-06-01 22:18:00,
2013-06-01 18:23:00,70.8,66.1,29.79,East,81,2.0,2.0,85,0.00,,---,0.17,VWS V14.01,2013-06-01 22:23:00,
2013-06-01 18:28:00,70.7,66.0,29.79,East,80,1.0,2.0,85,0.00,,---,0.17,VWS V14.01,2013-06-01 22:28:00,
2013-06-01 18:33:00,70.7,66.0,29.78,ENE,65,0.0,0.0,85,0.00,,---,0.17,VWS V14.01,2013-06-01 22:33:00,
2013-06-01 18:38:00,70.7,66.0,29.77,East,82,0.0,0.0,85,0.00,,---,0.17,VWS V14.01,2013-06-01 22:38:00,
2013-06-01 18:43:00,70.7,66.0,29.77,East,87,0.0,0.0,85,0.00,,---,0.17,VWS V14.01,2013-06-01 22:43:00,
2013-06-01 18:48:00,70.7,66.0,29.76,ENE,76,1.0,1.0,85,0.00,,---,0.17,VWS V14.01,2013-06-01 22:48:00,
2013-06-01 18:53:00,70.8,66.4,29.77,ESE,109,0.0,0.0,86,0.00,,---,0.17,VWS V14.01,2013-06-01 22:53:00,
2013-06-01 18:58:00,70.8,66.1,29.77,ESE,119,2.0,2.0,85,0.00,,---,0.17,VWS V14.01,2013-06-01 22:58:00,
2013-06-01 19:03:00,70.9,66.2,29.77,SE,129,0.0,1.0,85,0.00,,---,0.17,VWS V14.01,2013-06-01 23:03:00,
2013-06-01 19:08:00,71.1,66.7,29.78,NNE,15,0.0,0.0,86,0.00,,---,0.17,VWS V14.01,2013-06-01 23:08:00,
2013-06-01 19:13:00,71.1,66.4,29.79,WSW,246,0.0,0.0,85,0.00,,---,0.17,VWS V14.01,2013-06-01 23:13:00,
2013-06-01 19:18:00,71.2,66.5,29.79,SW,220,0.0,0.0,85,0.00,,---,0.17,VWS V14.01,2013-06-01 23:18:00,
2013-06-01 19:23:00,71.2,66.5,29.80,NW,315,1.0,1.0,85,0.00,,---,0.17,VWS V14.01,2013-06-01 23:23:00,
2013-06-01 19:28:00,71.1,66.4,29.80,SW,225,1.0,1.0,85,0.00,,---,0.17,VWS V14.01,2013-06-01 23:28:00,
2013-06-01 19:33:00,71.0,66.3,29.80,WSW,242,0.0,0.0,85,0.00,,---,0.17,VWS V14.01,2013-06-01 23:33:00,
2013-06-01 19:38:00,71.0,66.6,29.80,WSW,254,0.0,3.0,86,0.00,,---,0.17,VWS V14.01,2013-06-01 23:38:00,
2013-06-01 19:43:00,71.0,66.6,29.81,WNW,287,0.0,3.0,86,0.00,,---,0.17,VWS V14.01,2013-06-01 23:43:00,
2013-06-01 19:48:00,70.9,66.5,29.82,West,261,0.0,1.0,86,0.00,,---,0.17,VWS V14.01,2013-06-01 23:48:00,
2013-06-01 19:53:00,70.9,66.8,29.81,SE,124,0.0,0.0,87,0.00,,---,0.17,VWS V14.01,2013-06-01 23:53:00,
2013-06-01 19:58:00,70.8,66.7,29.82,West,266,0.0,0.0,87,0.00,,---,0.17,VWS V14.01,2013-06-01 23:58:00,
2013-06-01 20:03:00,70.6,66.6,29.81,East,94,0.0,1.0,87,0.00,,---,0.17,VWS V14.01,2013-06-02 00:03:00,
2013-06-01 20:08:00,70.5,66.4,29.81,NNE,24,0.0,0.0,87,0.00,,---,0.17,VWS V14.01,2013-06-02 00:08:00,
2013-06-01 20:13:00,70.3,66.6,29.81,WNW,302,1.0,1.0,88,0.00,,---,0.17,VWS V14.01,2013-06-02 00:13:00,
2013-06-01 20:18:00,70.2,66.5,29.82,East,85,0.0,0.0,88,0.00,,---,0.17,VWS V14.01,2013-06-02 00:18:00,
2013-06-01 20:23:00,70.0,66.3,29.82,WSW,249,0.0,0.0,88,0.00,,---,0.17,VWS V14.01,2013-06-02 00:23:00,
2013-06-01 20:28:00,69.8,66.1,29.82,East,82,0.0,0.0,88,0.00,,---,0.17,VWS V14.01,2013-06-02 00:28:00,
2013-06-01 20:33:00,69.7,66.3,29.82,ENE,68,0.0,1.0,89,0.00,,---,0.17,VWS V14.01,2013-06-02 00:33:00,
2013-06-01 20:38:00,69.6,66.2,29.82,West,259,0.0,0.0,89,0.00,,---,0.17,VWS V14.01,2013-06-02 00:38:00,